sensor_id;sensor_type;location;lat;lon;timestamp;pressure;altitude;pressure_sealevel;temperature;humidity
9077;BME280;4574;51.072;17.174;2023-10-31T00:00:07;98345.47;;;16.13;100.00
9077;BME280;4574;51.072;17.174;2023-10-31T00:02:38;98353.63;;;16.18;100.00
9077;BME280;4574;51.072;17.174;2023-10-31T00:05:06;98341.34;;;16.17;100.00
9077;BME280;4574;51.072;17.174;2023-10-31T00:07:35;98347.25;;;16.19;100.00
9077;BME280;4574;51.072;17.174;2023-10-31T00:10:04;98340.88;;;16.20;100.00
9077;BME280;4574;51.072;17.174;2023-10-31T00:12:32;98336.47;;;16.26;100.00
9077;BME280;4574;51.072;17.174;2023-10-31T00:15:02;98335.41;;;16.27;100.00
9077;BME280;4574;51.072;17.174;2023-10-31T00:17:31;98330.09;;;16.27;100.00
9077;BME280;4574;51.072;17.174;2023-10-31T00:19:59;98329.63;;;16.30;100.00
9077;BME280;4574;51.072;17.174;2023-10-31T00:22:29;98325.91;;;16.31;100.00
9077;BME280;4574;51.072;17.174;2023-10-31T00:24:57;98322.16;;;16.38;100.00
9077;BME280;4574;51.072;17.174;2023-10-31T00:27:26;98321.31;;;16.38;100.00
9077;BME280;4574;51.072;17.174;2023-10-31T00:29:54;98335.63;;;16.43;100.00
9077;BME280;4574;51.072;17.174;2023-10-31T00:32:24;98322.03;;;16.45;100.00
9077;BME280;4574;51.072;17.174;2023-10-31T00:34:53;98315.19;;;16.49;100.00
9077;BME280;4574;51.072;17.174;2023-10-31T00:37:22;98319.47;;;16.50;100.00
9077;BME280;4574;51.072;17.174;2023-10-31T00:39:50;98297.53;;;16.48;100.00
9077;BME280;4574;51.072;17.174;2023-10-31T00:42:18;98291.03;;;16.44;100.00
9077;BME280;4574;51.072;17.174;2023-10-31T00:44:47;98297.66;;;16.53;100.00
9077;BME280;4574;51.072;17.174;2023-10-31T00:47:16;98288.59;;;16.54;100.00
9077;BME280;4574;51.072;17.174;2023-10-31T00:49:46;98279.78;;;16.53;100.00
9077;BME280;4574;51.072;17.174;2023-10-31T00:52:14;98277.91;;;16.54;100.00
9077;BME280;4574;51.072;17.174;2023-10-31T00:54:43;98270.94;;;16.53;100.00
9077;BME280;4574;51.072;17.174;2023-10-31T00:57:12;98269.31;;;16.52;100.00
9077;BME280;4574;51.072;17.174;2023-10-31T00:59:41;98251.66;;;16.51;100.00
9077;BME280;4574;51.072;17.174;2023-10-31T01:02:09;98248.41;;;16.49;100.00
9077;BME280;4574;51.072;17.174;2023-10-31T01:04:38;98249.00;;;16.51;100.00
9077;BME280;4574;51.072;17.174;2023-10-31T01:07:08;98231.22;;;16.45;100.00
9077;BME280;4574;51.072;17.174;2023-10-31T01:09:39;98237.13;;;16.47;100.00
9077;BME280;4574;51.072;17.174;2023-10-31T01:12:08;98234.72;;;16.45;100.00
9077;BME280;4574;51.072;17.174;2023-10-31T01:14:37;98228.56;;;16.45;100.00
9077;BME280;4574;51.072;17.174;2023-10-31T01:17:05;98222.63;;;16.43;100.00
9077;BME280;4574;51.072;17.174;2023-10-31T01:19:34;98198.94;;;16.35;100.00
9077;BME280;4574;51.072;17.174;2023-10-31T01:22:03;98197.22;;;16.40;100.00
9077;BME280;4574;51.072;17.174;2023-10-31T01:24:33;98197.22;;;16.40;100.00
9077;BME280;4574;51.072;17.174;2023-10-31T01:27:01;98203.34;;;16.41;100.00
9077;BME280;4574;51.072;17.174;2023-10-31T01:29:29;98192.09;;;16.39;100.00
9077;BME280;4574;51.072;17.174;2023-10-31T01:31:58;98197.69;;;16.37;100.00
9077;BME280;4574;51.072;17.174;2023-10-31T01:34:33;98213.00;;;16.42;100.00
9077;BME280;4574;51.072;17.174;2023-10-31T01:37:01;98200.22;;;16.44;100.00
9077;BME280;4574;51.072;17.174;2023-10-31T01:39:30;98183.97;;;16.45;100.00
9077;BME280;4574;51.072;17.174;2023-10-31T01:42:00;98186.88;;;16.44;100.00
9077;BME280;4574;51.072;17.174;2023-10-31T01:44:28;98191.75;;;16.47;100.00
9077;BME280;4574;51.072;17.174;2023-10-31T01:46:57;98171.78;;;16.38;100.00
9077;BME280;4574;51.072;17.174;2023-10-31T01:49:25;98188.28;;;16.46;100.00
9077;BME280;4574;51.072;17.174;2023-10-31T01:51:54;98177.47;;;16.41;100.00
9077;BME280;4574;51.072;17.174;2023-10-31T01:54:22;98170.25;;;16.42;100.00
9077;BME280;4574;51.072;17.174;2023-10-31T01:56:51;98164.69;;;16.43;100.00
9077;BME280;4574;51.072;17.174;2023-10-31T01:59:25;98166.31;;;16.44;100.00
9077;BME280;4574;51.072;17.174;2023-10-31T02:01:55;98162.03;;;16.43;100.00
9077;BME280;4574;51.072;17.174;2023-10-31T02:04:24;98161.09;;;16.38;100.00
9077;BME280;4574;51.072;17.174;2023-10-31T02:06:53;98152.88;;;16.39;100.00
9077;BME280;4574;51.072;17.174;2023-10-31T02:09:22;98150.78;;;16.41;100.00
9077;BME280;4574;51.072;17.174;2023-10-31T02:11:53;98151.56;;;16.42;100.00
9077;BME280;4574;51.072;17.174;2023-10-31T02:14:23;98134.50;;;16.31;100.00
9077;BME280;4574;51.072;17.174;2023-10-31T02:16:52;98143.22;;;16.38;100.00
9077;BME280;4574;51.072;17.174;2023-10-31T02:19:21;98141.34;;;16.39;100.00
9077;BME280;4574;51.072;17.174;2023-10-31T02:21:51;98126.69;;;16.30;100.00
9077;BME280;4574;51.072;17.174;2023-10-31T02:24:19;98131.59;;;16.33;100.00
9077;BME280;4574;51.072;17.174;2023-10-31T02:26:47;98131.59;;;16.33;100.00
9077;BME280;4574;51.072;17.174;2023-10-31T02:29:16;98134.13;;;16.28;100.00
9077;BME280;4574;51.072;17.174;2023-10-31T02:31:44;98134.72;;;16.30;100.00
9077;BME280;4574;51.072;17.174;2023-10-31T02:34:14;98126.69;;;16.30;100.00
9077;BME280;4574;51.072;17.174;2023-10-31T02:36:42;98122.88;;;16.26;100.00
9077;BME280;4574;51.072;17.174;2023-10-31T02:39:12;98111.25;;;16.32;100.00
9077;BME280;4574;51.072;17.174;2023-10-31T02:41:41;98106.31;;;16.35;100.00
9077;BME280;4574;51.072;17.174;2023-10-31T02:44:09;98102.34;;;16.38;100.00
9077;BME280;4574;51.072;17.174;2023-10-31T02:46:38;98101.78;;;16.36;100.00
9077;BME280;4574;51.072;17.174;2023-10-31T02:49:07;98088.88;;;16.33;100.00
9077;BME280;4574;51.072;17.174;2023-10-31T02:51:36;98115.81;;;16.43;100.00
9077;BME280;4574;51.072;17.174;2023-10-31T02:54:06;98104.66;;;16.46;100.00
9077;BME280;4574;51.072;17.174;2023-10-31T02:56:35;98104.19;;;16.49;100.00
9077;BME280;4574;51.072;17.174;2023-10-31T02:59:04;98109.06;;;16.52;100.00
9077;BME280;4574;51.072;17.174;2023-10-31T03:01:33;98108.00;;;16.53;100.00
9077;BME280;4574;51.072;17.174;2023-10-31T03:04:02;98097.56;;;16.51;100.00
9077;BME280;4574;51.072;17.174;2023-10-31T03:06:30;98102.09;;;16.51;100.00
9077;BME280;4574;51.072;17.174;2023-10-31T03:08:59;98104.19;;;16.49;100.00
9077;BME280;4574;51.072;17.174;2023-10-31T03:11:27;98091.50;;;16.56;100.00
9077;BME280;4574;51.072;17.174;2023-10-31T03:13:58;98090.00;;;16.60;100.00
9077;BME280;4574;51.072;17.174;2023-10-31T03:16:26;98080.25;;;16.54;100.00
9077;BME280;4574;51.072;17.174;2023-10-31T03:18:56;98094.16;;;16.67;100.00
9077;BME280;4574;51.072;17.174;2023-10-31T03:21:24;98093.91;;;16.69;100.00
9077;BME280;4574;51.072;17.174;2023-10-31T03:23:53;98094.50;;;16.71;100.00
9077;BME280;4574;51.072;17.174;2023-10-31T03:26:23;98100.28;;;16.79;100.00
9077;BME280;4574;51.072;17.174;2023-10-31T03:28:53;98093.75;;;16.87;100.00
9077;BME280;4574;51.072;17.174;2023-10-31T03:31:26;98085.81;;;16.92;100.00
9077;BME280;4574;51.072;17.174;2023-10-31T03:33:54;98081.03;;;16.94;100.00
9077;BME280;4574;51.072;17.174;2023-10-31T03:36:23;98071.06;;;17.01;100.00
9077;BME280;4574;51.072;17.174;2023-10-31T03:38:51;98066.84;;;17.05;100.00
9077;BME280;4574;51.072;17.174;2023-10-31T03:41:22;98063.69;;;17.08;100.00
9077;BME280;4574;51.072;17.174;2023-10-31T03:43:50;98049.38;;;17.14;100.00
9077;BME280;4574;51.072;17.174;2023-10-31T03:46:19;98051.78;;;17.15;100.00
9077;BME280;4574;51.072;17.174;2023-10-31T03:48:49;98046.31;;;17.22;100.00
9077;BME280;4574;51.072;17.174;2023-10-31T03:51:17;98049.25;;;17.37;100.00
9077;BME280;4574;51.072;17.174;2023-10-31T03:53:46;98038.72;;;17.47;100.00
9077;BME280;4574;51.072;17.174;2023-10-31T03:56:14;98045.53;;;17.54;100.00
9077;BME280;4574;51.072;17.174;2023-10-31T03:58:43;98030.53;;;17.53;100.00
9077;BME280;4574;51.072;17.174;2023-10-31T04:01:12;98029.81;;;17.57;100.00
9077;BME280;4574;51.072;17.174;2023-10-31T04:03:41;98015.94;;;17.60;100.00
9077;BME280;4574;51.072;17.174;2023-10-31T04:06:10;98020.25;;;17.61;100.00
9077;BME280;4574;51.072;17.174;2023-10-31T04:08:40;98016.59;;;17.67;100.00
9077;BME280;4574;51.072;17.174;2023-10-31T04:11:08;98017.16;;;17.69;100.00
9077;BME280;4574;51.072;17.174;2023-10-31T04:13:37;98035.06;;;17.69;100.00
9077;BME280;4574;51.072;17.174;2023-10-31T04:16:06;98038.91;;;17.56;100.00
9077;BME280;4574;51.072;17.174;2023-10-31T04:18:36;98069.53;;;17.65;100.00
9077;BME280;4574;51.072;17.174;2023-10-31T04:21:05;98067.66;;;17.66;100.00
9077;BME280;4574;51.072;17.174;2023-10-31T04:23:35;98054.47;;;17.59;100.00
9077;BME280;4574;51.072;17.174;2023-10-31T04:26:06;98061.44;;;17.60;100.00
9077;BME280;4574;51.072;17.174;2023-10-31T04:28:34;98061.91;;;17.57;100.00
9077;BME280;4574;51.072;17.174;2023-10-31T04:31:03;98068.56;;;17.55;100.00
9077;BME280;4574;51.072;17.174;2023-10-31T04:33:32;98069.13;;;17.57;100.00
9077;BME280;4574;51.072;17.174;2023-10-31T04:36:00;98064.25;;;17.54;100.00
9077;BME280;4574;51.072;17.174;2023-10-31T04:38:29;98056.22;;;17.54;100.00
9077;BME280;4574;51.072;17.174;2023-10-31T04:40:59;98069.88;;;17.52;100.00
9077;BME280;4574;51.072;17.174;2023-10-31T04:43:27;98057.47;;;17.47;100.00
9077;BME280;4574;51.072;17.174;2023-10-31T04:45:56;98039.06;;;17.34;100.00
9077;BME280;4574;51.072;17.174;2023-10-31T04:48:24;98052.25;;;17.40;100.00
9077;BME280;4574;51.072;17.174;2023-10-31T04:50:53;98059.47;;;17.40;100.00
9077;BME280;4574;51.072;17.174;2023-10-31T04:53:24;98058.91;;;17.38;100.00
9077;BME280;4574;51.072;17.174;2023-10-31T04:55:53;98064.16;;;17.33;100.00
9077;BME280;4574;51.072;17.174;2023-10-31T04:58:23;98051.38;;;17.35;100.00
9077;BME280;4574;51.072;17.174;2023-10-31T05:00:51;98052.72;;;17.37;100.00
9077;BME280;4574;51.072;17.174;2023-10-31T05:03:20;98045.19;;;17.34;100.00
9077;BME280;4574;51.072;17.174;2023-10-31T05:05:48;98042.78;;;17.33;100.00
9077;BME280;4574;51.072;17.174;2023-10-31T05:08:17;98045.09;;;17.29;100.00
9077;BME280;4574;51.072;17.174;2023-10-31T05:10:45;98029.44;;;17.21;100.00
9077;BME280;4574;51.072;17.174;2023-10-31T05:13:17;98043.06;;;17.20;100.00
9077;BME280;4574;51.072;17.174;2023-10-31T05:15:47;98033.97;;;17.21;100.00
9077;BME280;4574;51.072;17.174;2023-10-31T05:18:16;98032.44;;;17.25;100.00
9077;BME280;4574;51.072;17.174;2023-10-31T05:20:44;98038.38;;;17.27;100.00
9077;BME280;4574;51.072;17.174;2023-10-31T05:23:14;98041.03;;;17.27;100.00
9077;BME280;4574;51.072;17.174;2023-10-31T05:25:43;98034.16;;;17.31;100.00
9077;BME280;4574;51.072;17.174;2023-10-31T05:28:11;98023.00;;;17.34;100.00
9077;BME280;4574;51.072;17.174;2023-10-31T05:30:40;98027.13;;;17.41;100.00
9077;BME280;4574;51.072;17.174;2023-10-31T05:33:09;98024.78;;;17.45;100.00
9077;BME280;4574;51.072;17.174;2023-10-31T05:35:38;98033.88;;;17.44;100.00
9077;BME280;4574;51.072;17.174;2023-10-31T05:38:07;98040.34;;;17.48;100.00
9077;BME280;4574;51.072;17.174;2023-10-31T05:40:38;98035.00;;;17.48;100.00
9077;BME280;4574;51.072;17.174;2023-10-31T05:43:07;98027.22;;;17.46;100.00
9077;BME280;4574;51.072;17.174;2023-10-31T05:45:35;98057.53;;;17.52;100.00
9077;BME280;4574;51.072;17.174;2023-10-31T05:48:04;98054.88;;;17.52;100.00
9077;BME280;4574;51.072;17.174;2023-10-31T05:50:34;98069.28;;;17.51;100.00
9077;BME280;4574;51.072;17.174;2023-10-31T05:53:02;98067.03;;;17.43;100.00
9077;BME280;4574;51.072;17.174;2023-10-31T05:55:31;98067.28;;;17.30;100.00
9077;BME280;4574;51.072;17.174;2023-10-31T05:58:01;98073.03;;;17.22;100.00
9077;BME280;4574;51.072;17.174;2023-10-31T06:00:30;98088.41;;;17.15;100.00
9077;BME280;4574;51.072;17.174;2023-10-31T06:02:58;98089.84;;;17.06;100.00
9077;BME280;4574;51.072;17.174;2023-10-31T06:05:25;98092.22;;;16.91;100.00
9077;BME280;4574;51.072;17.174;2023-10-31T06:07:56;98089.91;;;16.83;100.00
9077;BME280;4574;51.072;17.174;2023-10-31T06:10:24;98093.13;;;16.68;100.00
9077;BME280;4574;51.072;17.174;2023-10-31T06:12:52;98088.84;;;16.56;100.00
9077;BME280;4574;51.072;17.174;2023-10-31T06:15:21;98107.44;;;16.51;100.00
9077;BME280;4574;51.072;17.174;2023-10-31T06:17:49;98108.16;;;16.46;100.00
9077;BME280;4574;51.072;17.174;2023-10-31T06:20:18;98115.69;;;16.26;100.00
9077;BME280;4574;51.072;17.174;2023-10-31T06:22:46;98119.09;;;16.33;100.00
9077;BME280;4574;51.072;17.174;2023-10-31T06:25:19;98120.19;;;16.26;100.00
9077;BME280;4574;51.072;17.174;2023-10-31T06:27:47;98119.28;;;16.20;100.00
9077;BME280;4574;51.072;17.174;2023-10-31T06:30:16;98133.44;;;16.21;100.00
9077;BME280;4574;51.072;17.174;2023-10-31T06:32:54;98134.28;;;16.21;100.00
9077;BME280;4574;51.072;17.174;2023-10-31T06:35:22;98135.53;;;16.19;100.00
9077;BME280;4574;51.072;17.174;2023-10-31T06:37:51;98136.22;;;16.14;100.00
9077;BME280;4574;51.072;17.174;2023-10-31T06:40:21;98129.84;;;16.15;100.00
9077;BME280;4574;51.072;17.174;2023-10-31T06:42:50;98146.22;;;16.19;100.00
9077;BME280;4574;51.072;17.174;2023-10-31T06:45:19;98140.88;;;16.19;100.00
9077;BME280;4574;51.072;17.174;2023-10-31T06:47:48;98154.78;;;16.21;100.00
9077;BME280;4574;51.072;17.174;2023-10-31T06:50:16;98153.16;;;16.20;100.00
9077;BME280;4574;51.072;17.174;2023-10-31T06:52:46;98149.13;;;16.17;100.00
9077;BME280;4574;51.072;17.174;2023-10-31T06:55:15;98162.69;;;16.16;100.00
9077;BME280;4574;51.072;17.174;2023-10-31T06:57:45;98161.53;;;16.12;100.00
9077;BME280;4574;51.072;17.174;2023-10-31T07:00:14;98171.03;;;16.08;100.00
9077;BME280;4574;51.072;17.174;2023-10-31T07:02:43;98183.34;;;16.09;100.00
9077;BME280;4574;51.072;17.174;2023-10-31T07:05:11;98194.47;;;16.06;100.00
9077;BME280;4574;51.072;17.174;2023-10-31T07:07:41;98195.75;;;16.04;100.00
9077;BME280;4574;51.072;17.174;2023-10-31T07:10:09;98203.75;;;16.04;100.00
9077;BME280;4574;51.072;17.174;2023-10-31T07:12:38;98194.34;;;16.01;100.00
9077;BME280;4574;51.072;17.174;2023-10-31T07:15:09;98195.97;;;16.02;100.00
9077;BME280;4574;51.072;17.174;2023-10-31T07:17:37;98195.16;;;16.02;100.00
9077;BME280;4574;51.072;17.174;2023-10-31T07:20:07;98198.66;;;16.02;100.00
9077;BME280;4574;51.072;17.174;2023-10-31T07:22:36;98198.66;;;16.02;100.00
9077;BME280;4574;51.072;17.174;2023-10-31T07:25:05;98201.91;;;16.04;100.00
9077;BME280;4574;51.072;17.174;2023-10-31T07:27:33;98199.13;;;15.99;100.00
9077;BME280;4574;51.072;17.174;2023-10-31T07:30:03;98210.94;;;16.03;100.00
9077;BME280;4574;51.072;17.174;2023-10-31T07:32:34;98207.25;;;16.04;100.00
9077;BME280;4574;51.072;17.174;2023-10-31T07:35:03;98217.09;;;16.04;100.00
9077;BME280;4574;51.072;17.174;2023-10-31T07:37:32;98225.34;;;16.02;100.00
9077;BME280;4574;51.072;17.174;2023-10-31T07:40:03;98229.50;;;15.98;100.00
9077;BME280;4574;51.072;17.174;2023-10-31T07:42:32;98252.09;;;15.96;100.00
9077;BME280;4574;51.072;17.174;2023-10-31T07:45:00;98257.09;;;15.92;100.00
9077;BME280;4574;51.072;17.174;2023-10-31T07:47:29;98258.69;;;15.82;100.00
9077;BME280;4574;51.072;17.174;2023-10-31T07:49:59;98278.41;;;15.81;100.00
9077;BME280;4574;51.072;17.174;2023-10-31T07:52:28;98273.31;;;15.79;100.00
9077;BME280;4574;51.072;17.174;2023-10-31T07:54:56;98277.91;;;15.72;100.00
9077;BME280;4574;51.072;17.174;2023-10-31T07:57:25;98300.44;;;15.76;100.00
9077;BME280;4574;51.072;17.174;2023-10-31T07:59:53;98310.06;;;15.77;100.00
9077;BME280;4574;51.072;17.174;2023-10-31T08:02:22;98331.56;;;15.82;100.00
9077;BME280;4574;51.072;17.174;2023-10-31T08:04:51;98321.22;;;15.86;100.00
9077;BME280;4574;51.072;17.174;2023-10-31T08:07:21;98361.09;;;15.81;100.00
9077;BME280;4574;51.072;17.174;2023-10-31T08:09:50;98357.94;;;15.72;100.00
9077;BME280;4574;51.072;17.174;2023-10-31T08:12:18;98355.22;;;15.61;100.00
9077;BME280;4574;51.072;17.174;2023-10-31T08:14:47;98355.06;;;15.56;100.00
9077;BME280;4574;51.072;17.174;2023-10-31T08:17:17;98355.31;;;15.54;100.00
9077;BME280;4574;51.072;17.174;2023-10-31T08:19:45;98346.72;;;15.52;100.00
9077;BME280;4574;51.072;17.174;2023-10-31T08:22:14;98350.63;;;15.50;100.00
9077;BME280;4574;51.072;17.174;2023-10-31T08:24:44;98365.22;;;15.47;100.00
9077;BME280;4574;51.072;17.174;2023-10-31T08:27:13;98385.06;;;15.33;100.00
9077;BME280;4574;51.072;17.174;2023-10-31T08:29:41;98392.94;;;15.22;100.00
9077;BME280;4574;51.072;17.174;2023-10-31T08:32:10;98384.25;;;15.08;100.00
9077;BME280;4574;51.072;17.174;2023-10-31T08:34:38;98393.09;;;15.02;100.00
9077;BME280;4574;51.072;17.174;2023-10-31T08:37:07;98395.56;;;15.04;100.00
9077;BME280;4574;51.072;17.174;2023-10-31T08:39:35;98393.53;;;14.99;100.00
9077;BME280;4574;51.072;17.174;2023-10-31T08:42:05;98405.84;;;15.00;100.00
9077;BME280;4574;51.072;17.174;2023-10-31T08:44:34;98412.81;;;15.01;100.00
9077;BME280;4574;51.072;17.174;2023-10-31T08:47:04;98416.06;;;15.03;100.00
9077;BME280;4574;51.072;17.174;2023-10-31T08:49:33;98416.44;;;15.07;100.00
9077;BME280;4574;51.072;17.174;2023-10-31T08:52:02;98414.16;;;15.10;100.00
9077;BME280;4574;51.072;17.174;2023-10-31T08:54:31;98408.81;;;15.10;100.00
9077;BME280;4574;51.072;17.174;2023-10-31T08:56:59;98412.47;;;15.16;100.00
9077;BME280;4574;51.072;17.174;2023-10-31T08:59:29;98424.09;;;15.21;100.00
9077;BME280;4574;51.072;17.174;2023-10-31T09:01:58;98432.69;;;15.23;100.00
9077;BME280;4574;51.072;17.174;2023-10-31T09:04:26;98450.31;;;15.24;100.00
9077;BME280;4574;51.072;17.174;2023-10-31T09:06:54;98440.06;;;15.28;100.00
9077;BME280;4574;51.072;17.174;2023-10-31T09:09:23;98452.16;;;15.30;100.00
9077;BME280;4574;51.072;17.174;2023-10-31T09:11:52;98456.47;;;15.31;100.00
9077;BME280;4574;51.072;17.174;2023-10-31T09:14:20;98466.00;;;15.39;100.00
9077;BME280;4574;51.072;17.174;2023-10-31T09:16:50;98460.47;;;15.40;100.00
9077;BME280;4574;51.072;17.174;2023-10-31T09:19:19;98471.50;;;15.44;100.00
9077;BME280;4574;51.072;17.174;2023-10-31T09:21:47;98468.63;;;15.45;100.00
9077;BME280;4574;51.072;17.174;2023-10-31T09:24:16;98469.81;;;15.49;100.00
9077;BME280;4574;51.072;17.174;2023-10-31T09:26:45;98485.81;;;15.49;100.00
9077;BME280;4574;51.072;17.174;2023-10-31T09:29:13;98480.25;;;15.51;100.00
9077;BME280;4574;51.072;17.174;2023-10-31T09:31:55;98477.53;;;15.57;100.00
9077;BME280;4574;51.072;17.174;2023-10-31T09:34:24;98486.13;;;15.59;100.00
9077;BME280;4574;51.072;17.174;2023-10-31T09:36:52;98484.06;;;15.61;100.00
9077;BME280;4574;51.072;17.174;2023-10-31T09:39:21;98479.09;;;15.65;100.00
9077;BME280;4574;51.072;17.174;2023-10-31T09:41:50;98488.06;;;15.70;100.00
9077;BME280;4574;51.072;17.174;2023-10-31T09:44:21;98483.09;;;15.74;100.00
9077;BME280;4574;51.072;17.174;2023-10-31T09:46:51;98480.56;;;15.79;100.00
9077;BME280;4574;51.072;17.174;2023-10-31T09:49:21;98477.91;;;15.79;100.00
9077;BME280;4574;51.072;17.174;2023-10-31T09:51:51;98479.94;;;15.83;100.00
9077;BME280;4574;51.072;17.174;2023-10-31T09:54:20;98490.38;;;15.85;100.00
9077;BME280;4574;51.072;17.174;2023-10-31T09:56:50;98486.66;;;15.86;100.00
9077;BME280;4574;51.072;17.174;2023-10-31T09:59:21;98476.13;;;15.91;100.00
9077;BME280;4574;51.072;17.174;2023-10-31T10:01:49;98467.91;;;15.92;100.00
9077;BME280;4574;51.072;17.174;2023-10-31T10:04:18;98461.53;;;15.93;100.00
9077;BME280;4574;51.072;17.174;2023-10-31T10:06:58;98474.59;;;16.01;100.00
9077;BME280;4574;51.072;17.174;2023-10-31T10:09:27;98470.66;;;16.04;100.00
9077;BME280;4574;51.072;17.174;2023-10-31T10:11:56;98473.69;;;16.07;100.00
9077;BME280;4574;51.072;17.174;2023-10-31T10:14:26;98479.84;;;16.08;100.00
9077;BME280;4574;51.072;17.174;2023-10-31T10:16:55;98490.91;;;16.11;100.00
9077;BME280;4574;51.072;17.174;2023-10-31T10:19:24;98503.19;;;16.12;100.00
9077;BME280;4574;51.072;17.174;2023-10-31T10:21:56;98504.25;;;16.11;100.00
9077;BME280;4574;51.072;17.174;2023-10-31T10:24:25;98510.16;;;16.13;100.00
9077;BME280;4574;51.072;17.174;2023-10-31T10:26:53;98519.22;;;16.12;100.00
9077;BME280;4574;51.072;17.174;2023-10-31T10:29:23;98522.34;;;16.09;100.00
9077;BME280;4574;51.072;17.174;2023-10-31T10:31:53;98519.50;;;16.04;100.00
9077;BME280;4574;51.072;17.174;2023-10-31T10:34:22;98543.69;;;16.09;100.00
9077;BME280;4574;51.072;17.174;2023-10-31T10:36:50;98547.00;;;16.05;100.00
9077;BME280;4574;51.072;17.174;2023-10-31T10:39:22;98554.50;;;15.96;100.00
9077;BME280;4574;51.072;17.174;2023-10-31T10:41:52;98565.03;;;15.91;100.00
9077;BME280;4574;51.072;17.174;2023-10-31T10:44:31;98565.47;;;15.88;100.00
9077;BME280;4574;51.072;17.174;2023-10-31T10:47:02;98562.72;;;15.52;100.00
9077;BME280;4574;51.072;17.174;2023-10-31T10:49:33;98570.00;;;15.39;100.00
9077;BME280;4574;51.072;17.174;2023-10-31T10:52:13;98563.09;;;15.31;100.00
9077;BME280;4574;51.072;17.174;2023-10-31T10:54:52;98568.28;;;15.13;100.00
9077;BME280;4574;51.072;17.174;2023-10-31T10:57:31;98568.25;;;14.89;100.00
9077;BME280;4574;51.072;17.174;2023-10-31T11:00:03;98572.38;;;14.85;100.00
9077;BME280;4574;51.072;17.174;2023-10-31T11:02:34;98569.13;;;14.76;100.00
9077;BME280;4574;51.072;17.174;2023-10-31T11:05:06;98563.88;;;14.70;100.00
9077;BME280;4574;51.072;17.174;2023-10-31T11:07:37;98557.34;;;14.60;100.00
9077;BME280;4574;51.072;17.174;2023-10-31T11:10:08;98556.13;;;14.62;100.00
9077;BME280;4574;51.072;17.174;2023-10-31T11:12:37;98549.97;;;14.62;100.00
9077;BME280;4574;51.072;17.174;2023-10-31T11:15:08;98563.06;;;14.63;100.00
9077;BME280;4574;51.072;17.174;2023-10-31T11:17:38;98545.91;;;14.53;100.00
9077;BME280;4574;51.072;17.174;2023-10-31T11:20:10;98553.88;;;14.59;100.00
9077;BME280;4574;51.072;17.174;2023-10-31T11:22:42;98553.03;;;14.59;100.00
9077;BME280;4574;51.072;17.174;2023-10-31T11:25:16;98553.88;;;14.59;100.00
9077;BME280;4574;51.072;17.174;2023-10-31T11:28:11;98550.63;;;14.57;100.00
9077;BME280;4574;51.072;17.174;2023-10-31T11:30:40;98567.16;;;14.66;100.00
9077;BME280;4574;51.072;17.174;2023-10-31T11:33:14;98572.88;;;14.69;100.00
9077;BME280;4574;51.072;17.174;2023-10-31T11:35:43;98571.44;;;14.67;100.00
9077;BME280;4574;51.072;17.174;2023-10-31T11:38:12;98576.56;;;14.68;100.00
9077;BME280;4574;51.072;17.174;2023-10-31T11:40:59;98588.03;;;14.69;100.00
9077;BME280;4574;51.072;17.174;2023-10-31T11:43:50;98581.84;;;14.74;100.00
9077;BME280;4574;51.072;17.174;2023-10-31T11:46:20;98582.25;;;14.78;100.00
9077;BME280;4574;51.072;17.174;2023-10-31T11:48:53;98575.50;;;14.75;100.00
9077;BME280;4574;51.072;17.174;2023-10-31T11:51:24;98579.00;;;14.76;100.00
9077;BME280;4574;51.072;17.174;2023-10-31T11:53:52;98579.38;;;14.79;100.00
9077;BME280;4574;51.072;17.174;2023-10-31T11:56:23;98580.19;;;14.80;100.00
9077;BME280;4574;51.072;17.174;2023-10-31T11:58:58;98578.94;;;14.82;100.00
9077;BME280;4574;51.072;17.174;2023-10-31T12:01:47;98574.22;;;14.84;100.00
9077;BME280;4574;51.072;17.174;2023-10-31T12:04:22;98573.78;;;14.87;100.00
9077;BME280;4574;51.072;17.174;2023-10-31T12:06:58;98576.03;;;14.90;100.00
9077;BME280;4574;51.072;17.174;2023-10-31T12:09:28;98571.72;;;14.89;100.00
9077;BME280;4574;51.072;17.174;2023-10-31T12:12:02;98584.19;;;14.95;100.00
9077;BME280;4574;51.072;17.174;2023-10-31T12:14:30;98588.72;;;14.95;100.00
9077;BME280;4574;51.072;17.174;2023-10-31T12:17:04;98580.31;;;14.98;100.00
9077;BME280;4574;51.072;17.174;2023-10-31T12:19:34;98574.75;;;14.99;100.00
9077;BME280;4574;51.072;17.174;2023-10-31T12:22:12;98571.47;;;14.97;100.00
9077;BME280;4574;51.072;17.174;2023-10-31T12:24:40;98559.59;;;15.00;100.00
9077;BME280;4574;51.072;17.174;2023-10-31T12:27:10;98558.75;;;14.99;100.00
9077;BME280;4574;51.072;17.174;2023-10-31T12:29:41;98550.16;;;14.97;100.00
9077;BME280;4574;51.072;17.174;2023-10-31T12:32:12;98559.97;;;15.03;100.00
9077;BME280;4574;51.072;17.174;2023-10-31T12:34:43;98556.69;;;15.01;100.00
9077;BME280;4574;51.072;17.174;2023-10-31T12:37:12;98554.44;;;15.05;100.00
9077;BME280;4574;51.072;17.174;2023-10-31T12:39:41;98565.88;;;15.05;100.00
9077;BME280;4574;51.072;17.174;2023-10-31T12:42:11;98569.75;;;15.09;100.00
9077;BME280;4574;51.072;17.174;2023-10-31T12:44:40;98575.53;;;15.06;100.00
9077;BME280;4574;51.072;17.174;2023-10-31T12:47:09;98587.63;;;15.09;100.00
9077;BME280;4574;51.072;17.174;2023-10-31T12:49:38;98591.47;;;15.13;100.00
9077;BME280;4574;51.072;17.174;2023-10-31T12:52:07;98582.06;;;15.10;100.00
9077;BME280;4574;51.072;17.174;2023-10-31T12:54:37;98589.63;;;15.13;100.00
9077;BME280;4574;51.072;17.174;2023-10-31T12:57:07;98588.41;;;15.09;100.00
9077;BME280;4574;51.072;17.174;2023-10-31T12:59:38;98594.78;;;15.08;100.00
9077;BME280;4574;51.072;17.174;2023-10-31T13:02:07;98585.38;;;15.06;100.00
9077;BME280;4574;51.072;17.174;2023-10-31T13:04:37;98595.63;;;15.02;100.00
9077;BME280;4574;51.072;17.174;2023-10-31T13:07:07;98599.31;;;15.01;100.00
9077;BME280;4574;51.072;17.174;2023-10-31T13:09:37;98583.75;;;14.98;100.00
9077;BME280;4574;51.072;17.174;2023-10-31T13:12:08;98589.09;;;14.98;100.00